sensor_id;sensor_type;location;lat;lon;timestamp;pressure;altitude;pressure_sealevel;temperature;humidity
64668;BME280;51077;42.716;23.344;2023-03-26T00:00:52;94854.72;;;15.39;47.55
64668;BME280;51077;42.716;23.344;2023-03-26T00:03:20;94858.03;;;15.37;47.66
64668;BME280;51077;42.716;23.344;2023-03-26T00:05:46;94864.84;;;15.36;47.54
64668;BME280;51077;42.716;23.344;2023-03-26T00:08:13;94860.97;;;15.31;47.38
64668;BME280;51077;42.716;23.344;2023-03-26T00:10:40;94860.06;;;15.29;47.39
64668;BME280;51077;42.716;23.344;2023-03-26T00:13:06;94863.75;;;15.24;47.38
64668;BME280;51077;42.716;23.344;2023-03-26T00:15:33;94852.50;;;15.22;47.57
64668;BME280;51077;42.716;23.344;2023-03-26T00:17:59;94849.72;;;15.14;47.62
64668;BME280;51077;42.716;23.344;2023-03-26T00:20:29;94838.13;;;15.08;47.35
64668;BME280;51077;42.716;23.344;2023-03-26T00:22:57;94842.56;;;15.03;47.31
64668;BME280;51077;42.716;23.344;2023-03-26T00:25:26;94837.75;;;14.96;47.47
64668;BME280;51077;42.716;23.344;2023-03-26T00:27:51;94836.25;;;14.88;47.59
64668;BME280;51077;42.716;23.344;2023-03-26T00:30:17;94841.97;;;14.82;47.68
64668;BME280;51077;42.716;23.344;2023-03-26T00:32:42;94833.31;;;14.78;47.72
64668;BME280;51077;42.716;23.344;2023-03-26T00:35:08;94839.19;;;14.74;47.72
64668;BME280;51077;42.716;23.344;2023-03-26T00:37:35;94839.38;;;14.69;47.67
64668;BME280;51077;42.716;23.344;2023-03-26T00:40:00;94834.94;;;14.66;47.84
64668;BME280;51077;42.716;23.344;2023-03-26T00:42:32;94840.09;;;14.62;47.76
64668;BME280;51077;42.716;23.344;2023-03-26T00:44:57;94839.69;;;14.57;47.84
64668;BME280;51077;42.716;23.344;2023-03-26T00:47:23;94843.75;;;14.56;47.83
64668;BME280;51077;42.716;23.344;2023-03-26T00:49:49;94846.13;;;14.52;47.84
64668;BME280;51077;42.716;23.344;2023-03-26T00:52:15;94841.69;;;14.49;47.79
64668;BME280;51077;42.716;23.344;2023-03-26T00:54:44;94848.53;;;14.48;47.89
64668;BME280;51077;42.716;23.344;2023-03-26T00:57:09;94849.56;;;14.45;47.89
64668;BME280;51077;42.716;23.344;2023-03-26T00:59:36;94850.50;;;14.40;47.83
64668;BME280;51077;42.716;23.344;2023-03-26T01:02:01;94843.13;;;14.35;47.98
64668;BME280;51077;42.716;23.344;2023-03-26T01:04:31;94846.78;;;14.30;47.96
64668;BME280;51077;42.716;23.344;2023-03-26T01:07:07;94848.59;;;14.27;48.04
64668;BME280;51077;42.716;23.344;2023-03-26T01:09:36;94849.72;;;14.24;48.05
64668;BME280;51077;42.716;23.344;2023-03-26T01:12:10;94854.84;;;14.20;48.08
64668;BME280;51077;42.716;23.344;2023-03-26T01:14:37;94854.63;;;14.18;48.07
64668;BME280;51077;42.716;23.344;2023-03-26T01:17:05;94855.19;;;14.17;48.12
64668;BME280;51077;42.716;23.344;2023-03-26T01:22:03;94864.03;;;14.15;47.99
64668;BME280;51077;42.716;23.344;2023-03-26T01:24:29;94857.75;;;14.15;48.02
64668;BME280;51077;42.716;23.344;2023-03-26T01:27:11;94850.03;;;14.13;48.03
64668;BME280;51077;42.716;23.344;2023-03-26T01:35:13;94868.03;;;14.06;48.21
64668;BME280;51077;42.716;23.344;2023-03-26T01:41:09;94863.03;;;14.05;48.19
64668;BME280;51077;42.716;23.344;2023-03-26T01:43:38;94859.56;;;14.04;48.13
64668;BME280;51077;42.716;23.344;2023-03-26T01:46:08;94866.53;;;14.05;48.09
64668;BME280;51077;42.716;23.344;2023-03-26T01:48:37;94867.81;;;14.04;48.10
64668;BME280;51077;42.716;23.344;2023-03-26T01:51:04;94874.81;;;14.05;48.12
64668;BME280;51077;42.716;23.344;2023-03-26T01:53:32;94875.75;;;14.08;48.20
64668;BME280;51077;42.716;23.344;2023-03-26T01:56:19;94870.97;;;14.08;48.02
64668;BME280;51077;42.716;23.344;2023-03-26T02:04:25;94883.09;;;14.05;48.11
64668;BME280;51077;42.716;23.344;2023-03-26T02:07:12;94873.56;;;14.06;48.26
64668;BME280;51077;42.716;23.344;2023-03-26T02:09:47;94877.19;;;14.01;48.26
64668;BME280;51077;42.716;23.344;2023-03-26T02:12:15;94876.06;;;13.97;48.48
64668;BME280;51077;42.716;23.344;2023-03-26T02:14:41;94879.19;;;13.93;48.48
64668;BME280;51077;42.716;23.344;2023-03-26T02:17:07;94872.72;;;13.91;48.57
64668;BME280;51077;42.716;23.344;2023-03-26T02:19:34;94875.84;;;13.87;48.63
64668;BME280;51077;42.716;23.344;2023-03-26T02:21:59;94888.88;;;13.87;48.82
64668;BME280;51077;42.716;23.344;2023-03-26T02:24:26;94884.44;;;13.83;48.80
64668;BME280;51077;42.716;23.344;2023-03-26T02:26:51;94875.25;;;13.81;49.00
64668;BME280;51077;42.716;23.344;2023-03-26T02:29:17;94875.03;;;13.79;49.06
64668;BME280;51077;42.716;23.344;2023-03-26T02:31:43;94871.16;;;13.74;49.16
64668;BME280;51077;42.716;23.344;2023-03-26T02:34:08;94875.19;;;13.73;49.21
64668;BME280;51077;42.716;23.344;2023-03-26T02:36:34;94886.56;;;13.70;49.51
64668;BME280;51077;42.716;23.344;2023-03-26T02:38:59;94891.69;;;13.66;49.55
64668;BME280;51077;42.716;23.344;2023-03-26T02:41:25;94893.53;;;13.63;49.54
64668;BME280;51077;42.716;23.344;2023-03-26T02:43:50;94895.34;;;13.61;49.64
64668;BME280;51077;42.716;23.344;2023-03-26T02:46:15;94896.63;;;13.60;49.72
64668;BME280;51077;42.716;23.344;2023-03-26T02:48:41;94900.84;;;13.61;49.72
64668;BME280;51077;42.716;23.344;2023-03-26T02:51:06;94895.34;;;13.61;49.70
64668;BME280;51077;42.716;23.344;2023-03-26T02:53:32;94905.09;;;13.62;49.78
64668;BME280;51077;42.716;23.344;2023-03-26T02:55:58;94901.06;;;13.63;49.83
64668;BME280;51077;42.716;23.344;2023-03-26T02:58:26;94903.59;;;13.61;49.96
64668;BME280;51077;42.716;23.344;2023-03-26T03:00:54;94901.19;;;13.57;50.10
64668;BME280;51077;42.716;23.344;2023-03-26T03:03:24;94904.28;;;13.53;50.12
64668;BME280;51077;42.716;23.344;2023-03-26T03:05:50;94909.06;;;13.53;50.27
64668;BME280;51077;42.716;23.344;2023-03-26T03:08:21;94907.75;;;13.46;50.69
64668;BME280;51077;42.716;23.344;2023-03-26T03:11:09;94912.31;;;13.44;50.38
64668;BME280;51077;42.716;23.344;2023-03-26T03:13:35;94917.22;;;13.38;50.96
64668;BME280;51077;42.716;23.344;2023-03-26T03:16:00;94919.59;;;13.33;50.71
64668;BME280;51077;42.716;23.344;2023-03-26T03:18:26;94920.66;;;13.30;50.92
64668;BME280;51077;42.716;23.344;2023-03-26T03:20:51;94920.78;;;13.25;50.97
64668;BME280;51077;42.716;23.344;2023-03-26T03:23:18;94914.84;;;13.21;51.32
64668;BME280;51077;42.716;23.344;2023-03-26T03:25:44;94913.72;;;13.16;51.16
64668;BME280;51077;42.716;23.344;2023-03-26T03:28:09;94927.06;;;13.12;51.32
64668;BME280;51077;42.716;23.344;2023-03-26T03:30:35;94922.13;;;13.11;51.30
64668;BME280;51077;42.716;23.344;2023-03-26T03:33:01;94929.44;;;13.08;51.21
64668;BME280;51077;42.716;23.344;2023-03-26T03:35:27;94926.66;;;13.08;51.08
64668;BME280;51077;42.716;23.344;2023-03-26T03:37:54;94930.38;;;13.11;51.17
64668;BME280;51077;42.716;23.344;2023-03-26T03:40:20;94919.13;;;13.08;51.13
64668;BME280;51077;42.716;23.344;2023-03-26T03:42:45;94913.63;;;13.08;51.27
64668;BME280;51077;42.716;23.344;2023-03-26T03:45:11;94913.63;;;13.08;51.09
64668;BME280;51077;42.716;23.344;2023-03-26T03:47:37;94919.69;;;13.07;51.00
64668;BME280;51077;42.716;23.344;2023-03-26T03:50:03;94918.94;;;13.06;51.20
64668;BME280;51077;42.716;23.344;2023-03-26T03:52:29;94932.00;;;13.06;51.11
64668;BME280;51077;42.716;23.344;2023-03-26T03:54:54;94928.69;;;13.07;51.07
64668;BME280;51077;42.716;23.344;2023-03-26T03:57:22;94936.41;;;13.09;51.98
64668;BME280;51077;42.716;23.344;2023-03-26T03:59:48;94935.34;;;13.12;53.10
64668;BME280;51077;42.716;23.344;2023-03-26T04:02:14;94946.03;;;13.16;53.33
64668;BME280;51077;42.716;23.344;2023-03-26T04:04:51;94944.53;;;13.15;53.59
64668;BME280;51077;42.716;23.344;2023-03-26T04:07:16;94925.78;;;13.13;53.39
64668;BME280;51077;42.716;23.344;2023-03-26T04:09:42;94936.81;;;13.13;53.15
64668;BME280;51077;42.716;23.344;2023-03-26T04:12:07;94941.59;;;13.13;53.05
64668;BME280;51077;42.716;23.344;2023-03-26T04:14:33;94946.03;;;13.16;52.67
64668;BME280;51077;42.716;23.344;2023-03-26T04:16:58;94958.31;;;13.15;52.65
64668;BME280;51077;42.716;23.344;2023-03-26T04:19:23;94963.81;;;13.15;52.72
64668;BME280;51077;42.716;23.344;2023-03-26T04:21:51;94974.66;;;13.13;52.50
64668;BME280;51077;42.716;23.344;2023-03-26T04:24:16;94985.50;;;13.11;52.50
64668;BME280;51077;42.716;23.344;2023-03-26T04:26:42;94993.75;;;13.11;52.55
64668;BME280;51077;42.716;23.344;2023-03-26T04:29:08;95005.50;;;13.11;52.50
64668;BME280;51077;42.716;23.344;2023-03-26T04:31:36;95014.69;;;13.14;52.33
64668;BME280;51077;42.716;23.344;2023-03-26T04:34:19;95016.41;;;13.17;52.28
64668;BME280;51077;42.716;23.344;2023-03-26T04:36:48;95019.91;;;13.17;52.17
64668;BME280;51077;42.716;23.344;2023-03-26T04:39:15;95029.13;;;13.20;51.86
64668;BME280;51077;42.716;23.344;2023-03-26T04:41:41;95036.53;;;13.25;51.76
64668;BME280;51077;42.716;23.344;2023-03-26T04:44:06;95035.25;;;13.26;51.63
64668;BME280;51077;42.716;23.344;2023-03-26T04:46:32;95036.22;;;13.28;51.58
64668;BME280;51077;42.716;23.344;2023-03-26T04:48:58;95035.13;;;13.31;51.50
64668;BME280;51077;42.716;23.344;2023-03-26T04:51:25;95033.09;;;13.32;51.50
64668;BME280;51077;42.716;23.344;2023-03-26T04:53:56;95036.63;;;13.32;51.31
64668;BME280;51077;42.716;23.344;2023-03-26T04:56:36;95040.13;;;13.33;51.40
64668;BME280;51077;42.716;23.344;2023-03-26T04:59:03;95040.13;;;13.33;51.34
64668;BME280;51077;42.716;23.344;2023-03-26T05:01:29;95039.56;;;13.35;51.18
64668;BME280;51077;42.716;23.344;2023-03-26T05:03:55;95037.22;;;13.39;51.30
64668;BME280;51077;42.716;23.344;2023-03-26T05:06:25;95036.34;;;13.44;51.02
64668;BME280;51077;42.716;23.344;2023-03-26T05:08:53;95038.97;;;13.49;50.98
64668;BME280;51077;42.716;23.344;2023-03-26T05:11:18;95046.19;;;13.52;50.76
64668;BME280;51077;42.716;23.344;2023-03-26T05:13:44;95050.81;;;13.57;50.61
64668;BME280;51077;42.716;23.344;2023-03-26T05:16:11;95049.44;;;13.64;50.40
64668;BME280;51077;42.716;23.344;2023-03-26T05:18:36;95052.59;;;13.68;50.24
64668;BME280;51077;42.716;23.344;2023-03-26T05:21:02;95049.69;;;13.74;50.01
64668;BME280;51077;42.716;23.344;2023-03-26T05:23:27;95057.31;;;13.81;49.84
64668;BME280;51077;42.716;23.344;2023-03-26T05:25:52;95048.88;;;13.87;49.74
64668;BME280;51077;42.716;23.344;2023-03-26T05:28:18;95052.59;;;13.89;49.51
64668;BME280;51077;42.716;23.344;2023-03-26T05:30:47;95053.13;;;13.88;49.53
64668;BME280;51077;42.716;23.344;2023-03-26T05:33:12;95059.94;;;13.87;49.43
64668;BME280;51077;42.716;23.344;2023-03-26T05:35:38;95054.41;;;13.87;49.43
64668;BME280;51077;42.716;23.344;2023-03-26T05:38:03;95054.06;;;13.90;49.22
64668;BME280;51077;42.716;23.344;2023-03-26T05:40:28;95063.16;;;13.98;49.17
64668;BME280;51077;42.716;23.344;2023-03-26T05:42:54;95049.81;;;14.10;48.99
64668;BME280;51077;42.716;23.344;2023-03-26T05:45:19;95060.91;;;14.18;48.82
64668;BME280;51077;42.716;23.344;2023-03-26T05:47:46;95056.97;;;14.34;48.49
64668;BME280;51077;42.716;23.344;2023-03-26T05:50:14;95060.06;;;14.51;48.16
64668;BME280;51077;42.716;23.344;2023-03-26T05:52:39;95058.63;;;14.58;47.90
64668;BME280;51077;42.716;23.344;2023-03-26T05:55:05;95069.38;;;14.69;47.66
64668;BME280;51077;42.716;23.344;2023-03-26T05:57:33;95060.63;;;14.86;47.31
64668;BME280;51077;42.716;23.344;2023-03-26T06:00:00;95059.03;;;15.06;46.98
64668;BME280;51077;42.716;23.344;2023-03-26T06:02:26;95052.50;;;15.24;46.54
64668;BME280;51077;42.716;23.344;2023-03-26T06:04:53;95041.28;;;15.45;46.11
64668;BME280;51077;42.716;23.344;2023-03-26T06:07:21;95053.53;;;15.65;45.79
64668;BME280;51077;42.716;23.344;2023-03-26T06:09:47;95046.19;;;15.83;45.28
64668;BME280;51077;42.716;23.344;2023-03-26T06:12:13;95055.41;;;15.93;44.95
64668;BME280;51077;42.716;23.344;2023-03-26T06:14:39;95056.88;;;16.09;44.83
64668;BME280;51077;42.716;23.344;2023-03-26T06:17:07;95050.63;;;16.24;44.31
64668;BME280;51077;42.716;23.344;2023-03-26T06:19:33;95054.66;;;16.39;44.08
64668;BME280;51077;42.716;23.344;2023-03-26T06:21:58;95046.50;;;16.56;43.64
64668;BME280;51077;42.716;23.344;2023-03-26T06:24:24;95055.72;;;16.74;43.54
64668;BME280;51077;42.716;23.344;2023-03-26T06:26:49;95062.16;;;16.92;43.10
64668;BME280;51077;42.716;23.344;2023-03-26T06:29:15;95063.00;;;17.09;42.74
64668;BME280;51077;42.716;23.344;2023-03-26T06:31:40;95056.09;;;17.26;42.34
64668;BME280;51077;42.716;23.344;2023-03-26T06:34:06;95062.50;;;17.44;42.05
64668;BME280;51077;42.716;23.344;2023-03-26T06:36:32;95059.81;;;17.61;41.71
64668;BME280;51077;42.716;23.344;2023-03-26T06:38:57;95055.09;;;17.79;41.45
64668;BME280;51077;42.716;23.344;2023-03-26T06:41:22;95054.44;;;17.96;41.21
64668;BME280;51077;42.716;23.344;2023-03-26T06:43:48;95067.06;;;18.14;40.83
64668;BME280;51077;42.716;23.344;2023-03-26T06:46:14;95072.28;;;18.35;40.50
64668;BME280;51077;42.716;23.344;2023-03-26T06:48:40;95073.94;;;18.55;40.08
64668;BME280;51077;42.716;23.344;2023-03-26T06:51:07;95068.59;;;18.75;39.82
64668;BME280;51077;42.716;23.344;2023-03-26T06:53:32;95071.56;;;18.94;39.35
64668;BME280;51077;42.716;23.344;2023-03-26T06:55:58;95072.59;;;19.16;38.95
64668;BME280;51077;42.716;23.344;2023-03-26T06:58:23;95073.47;;;19.36;38.67
64668;BME280;51077;42.716;23.344;2023-03-26T07:00:52;95082.09;;;19.57;38.27
64668;BME280;51077;42.716;23.344;2023-03-26T07:03:18;95080.75;;;19.76;38.05
64668;BME280;51077;42.716;23.344;2023-03-26T07:05:43;95076.63;;;19.94;37.45
64668;BME280;51077;42.716;23.344;2023-03-26T07:08:08;95087.25;;;20.15;37.23
64668;BME280;51077;42.716;23.344;2023-03-26T07:10:34;95076.47;;;20.29;36.84
64668;BME280;51077;42.716;23.344;2023-03-26T07:12:59;95076.69;;;20.50;36.51
64668;BME280;51077;42.716;23.344;2023-03-26T07:15:26;95076.44;;;20.66;36.10
64668;BME280;51077;42.716;23.344;2023-03-26T07:17:52;95072.06;;;20.82;35.60
64668;BME280;51077;42.716;23.344;2023-03-26T07:20:17;95071.63;;;20.95;34.97
64668;BME280;51077;42.716;23.344;2023-03-26T07:22:43;95065.59;;;21.08;34.74
64668;BME280;51077;42.716;23.344;2023-03-26T07:25:09;95070.75;;;21.22;34.86
64668;BME280;51077;42.716;23.344;2023-03-26T07:41:45;95062.16;;;22.50;32.29
64668;BME280;51077;42.716;23.344;2023-03-26T07:46:52;95060.16;;;22.93;31.63
64668;BME280;51077;42.716;23.344;2023-03-26T07:49:18;95064.13;;;23.12;31.14
64668;BME280;51077;42.716;23.344;2023-03-26T07:51:45;95062.38;;;23.28;30.86
64668;BME280;51077;42.716;23.344;2023-03-26T07:54:11;95065.75;;;23.48;30.48
64668;BME280;51077;42.716;23.344;2023-03-26T07:57:03;95057.31;;;23.69;30.22
64668;BME280;51077;42.716;23.344;2023-03-26T07:59:37;95049.56;;;23.91;30.06
64668;BME280;51077;42.716;23.344;2023-03-26T08:12:59;95046.19;;;25.00;28.58
64668;BME280;51077;42.716;23.344;2023-03-26T08:15:48;95043.94;;;25.22;28.05
64668;BME280;51077;42.716;23.344;2023-03-26T08:23:28;95048.47;;;25.78;27.17
64668;BME280;51077;42.716;23.344;2023-03-26T08:28:38;95054.78;;;26.18;26.82
64668;BME280;51077;42.716;23.344;2023-03-26T08:31:08;95062.09;;;26.37;26.64
64668;BME280;51077;42.716;23.344;2023-03-26T08:33:35;95057.56;;;26.58;26.37
64668;BME280;51077;42.716;23.344;2023-03-26T08:36:00;95057.75;;;26.75;25.65
64668;BME280;51077;42.716;23.344;2023-03-26T08:38:26;95057.94;;;26.93;25.94
64668;BME280;51077;42.716;23.344;2023-03-26T08:46:35;95056.94;;;27.60;25.23
64668;BME280;51077;42.716;23.344;2023-03-26T08:52:19;95055.31;;;28.00;23.85
64668;BME280;51077;42.716;23.344;2023-03-26T09:04:01;95046.56;;;28.57;22.86
64668;BME280;51077;42.716;23.344;2023-03-26T09:09:46;95045.69;;;28.86;22.44
64668;BME280;51077;42.716;23.344;2023-03-26T09:25:22;95017.69;;;29.99;21.56
64668;BME280;51077;42.716;23.344;2023-03-26T09:28:09;95019.88;;;30.19;20.93
64668;BME280;51077;42.716;23.344;2023-03-26T09:36:20;95005.78;;;30.61;20.36
64668;BME280;51077;42.716;23.344;2023-03-26T09:39:08;95013.47;;;30.78;20.09
64668;BME280;51077;42.716;23.344;2023-03-26T09:41:41;95016.66;;;30.88;19.63
64668;BME280;51077;42.716;23.344;2023-03-26T09:47:25;95000.59;;;31.17;19.57
64668;BME280;51077;42.716;23.344;2023-03-26T09:52:44;94993.44;;;31.36;19.15
64668;BME280;51077;42.716;23.344;2023-03-26T09:55:27;94989.59;;;31.49;18.69
64668;BME280;51077;42.716;23.344;2023-03-26T10:16:37;94951.66;;;31.84;17.62
64668;BME280;51077;42.716;23.344;2023-03-26T10:40:31;94926.72;;;33.15;16.31
64668;BME280;51077;42.716;23.344;2023-03-26T10:43:06;94918.50;;;33.27;16.31
64668;BME280;51077;42.716;23.344;2023-03-26T10:48:27;94911.28;;;33.54;16.10
64668;BME280;51077;42.716;23.344;2023-03-26T10:54:07;94901.88;;;33.80;15.36
64668;BME280;51077;42.716;23.344;2023-03-26T10:56:43;94902.84;;;33.92;15.55
64668;BME280;51077;42.716;23.344;2023-03-26T10:59:12;94888.53;;;33.90;15.43
64668;BME280;51077;42.716;23.344;2023-03-26T11:02:05;94890.56;;;33.84;14.75
64668;BME280;51077;42.716;23.344;2023-03-26T11:07:22;94889.69;;;33.75;14.55
64668;BME280;51077;42.716;23.344;2023-03-26T11:15:26;94889.53;;;34.03;14.39
64668;BME280;51077;42.716;23.344;2023-03-26T11:18:12;94883.38;;;34.15;14.60
64668;BME280;51077;42.716;23.344;2023-03-26T11:20:54;94886.47;;;34.29;14.18
64668;BME280;51077;42.716;23.344;2023-03-26T11:23:42;94874.66;;;34.45;14.00
64668;BME280;51077;42.716;23.344;2023-03-26T11:29:13;94867.81;;;34.60;13.79
64668;BME280;51077;42.716;23.344;2023-03-26T11:32:08;94869.38;;;34.69;13.56
64668;BME280;51077;42.716;23.344;2023-03-26T11:34:47;94860.88;;;34.71;14.00
64668;BME280;51077;42.716;23.344;2023-03-26T11:37:19;94858.06;;;34.73;13.68
64668;BME280;51077;42.716;23.344;2023-03-26T11:39:50;94857.53;;;34.85;13.20
64668;BME280;51077;42.716;23.344;2023-03-26T11:42:17;94849.03;;;34.89;13.45
64668;BME280;51077;42.716;23.344;2023-03-26T11:44:52;94841.19;;;34.88;13.07
64668;BME280;51077;42.716;23.344;2023-03-26T11:47:22;94835.97;;;34.74;12.93
64668;BME280;51077;42.716;23.344;2023-03-26T11:49:50;94826.59;;;34.67;12.98
64668;BME280;51077;42.716;23.344;2023-03-26T11:52:17;94818.13;;;34.73;12.78
64668;BME280;51077;42.716;23.344;2023-03-26T11:54:42;94818.72;;;34.64;12.93
64668;BME280;51077;42.716;23.344;2023-03-26T11:57:17;94806.72;;;34.73;13.11
64668;BME280;51077;42.716;23.344;2023-03-26T11:59:53;94803.88;;;34.71;12.94
64668;BME280;51077;42.716;23.344;2023-03-26T12:02:28;94796.94;;;34.85;12.86
64668;BME280;51077;42.716;23.344;2023-03-26T12:05:16;94784.16;;;34.88;12.51
64668;BME280;51077;42.716;23.344;2023-03-26T12:07:49;94781.25;;;34.86;12.88
64668;BME280;51077;42.716;23.344;2023-03-26T12:12:47;94787.78;;;34.92;12.64
64668;BME280;51077;42.716;23.344;2023-03-26T12:15:13;94789.31;;;34.97;12.90
64668;BME280;51077;42.716;23.344;2023-03-26T12:17:40;94790.78;;;35.00;12.74
64668;BME280;51077;42.716;23.344;2023-03-26T12:22:53;94767.13;;;34.92;12.90
64668;BME280;51077;42.716;23.344;2023-03-26T12:25:29;94769.41;;;35.04;12.80
64668;BME280;51077;42.716;23.344;2023-03-26T12:30:51;94755.38;;;35.18;12.88
64668;BME280;51077;42.716;23.344;2023-03-26T12:33:24;94754.81;;;35.32;12.31
64668;BME280;51077;42.716;23.344;2023-03-26T12:35:51;94752.47;;;35.16;12.41
64668;BME280;51077;42.716;23.344;2023-03-26T12:38:30;94749.91;;;35.38;12.70
64668;BME280;51077;42.716;23.344;2023-03-26T12:41:09;94732.13;;;35.44;12.74
64668;BME280;51077;42.716;23.344;2023-03-26T12:46:26;94740.94;;;35.08;12.29
64668;BME280;51077;42.716;23.344;2023-03-26T12:48:55;94722.22;;;34.94;12.12
64668;BME280;51077;42.716;23.344;2023-03-26T12:52:08;94726.25;;;34.77;12.15
64668;BME280;51077;42.716;23.344;2023-03-26T13:16:00;94710.13;;;33.63;11.69
64668;BME280;51077;42.716;23.344;2023-03-26T13:18:46;94699.28;;;33.53;11.96
64668;BME280;51077;42.716;23.344;2023-03-26T13:21:32;94698.38;;;33.08;11.81
64668;BME280;51077;42.716;23.344;2023-03-26T13:24:36;94681.28;;;32.74;12.22
64668;BME280;51077;42.716;23.344;2023-03-26T13:37:42;94698.13;;;30.73;12.62
64668;BME280;51077;42.716;23.344;2023-03-26T13:40:46;94690.88;;;30.44;12.94
64668;BME280;51077;42.716;23.344;2023-03-26T13:46:37;94690.44;;;29.86;13.72
64668;BME280;51077;42.716;23.344;2023-03-26T13:49:09;94682.59;;;29.63;14.19
64668;BME280;51077;42.716;23.344;2023-03-26T13:51:49;94680.44;;;29.41;13.92
64668;BME280;51077;42.716;23.344;2023-03-26T13:54:30;94683.78;;;29.16;14.25
64668;BME280;51077;42.716;23.344;2023-03-26T13:57:32;94675.88;;;28.92;14.41
64668;BME280;51077;42.716;23.344;2023-03-26T14:00:12;94683.44;;;28.68;14.43
64668;BME280;51077;42.716;23.344;2023-03-26T14:02:49;94666.47;;;28.48;14.57
64668;BME280;51077;42.716;23.344;2023-03-26T14:05:24;94673.41;;;28.27;14.49
64668;BME280;51077;42.716;23.344;2023-03-26T14:10:26;94667.06;;;27.91;14.84
64668;BME280;51077;42.716;23.344;2023-03-26T14:12:55;94671.84;;;27.70;14.73
64668;BME280;51077;42.716;23.344;2023-03-26T14:15:33;94670.53;;;27.55;14.71
64668;BME280;51077;42.716;23.344;2023-03-26T14:21:31;94657.75;;;27.19;14.68
64668;BME280;51077;42.716;23.344;2023-03-26T14:24:32;94655.00;;;27.05;14.96
64668;BME280;51077;42.716;23.344;2023-03-26T14:27:11;94654.41;;;26.91;15.05
64668;BME280;51077;42.716;23.344;2023-03-26T14:32:52;94659.69;;;26.67;15.46
64668;BME280;51077;42.716;23.344;2023-03-26T14:41:21;94647.66;;;26.35;15.64
64668;BME280;51077;42.716;23.344;2023-03-26T14:46:28;94643.28;;;26.16;15.94
64668;BME280;51077;42.716;23.344;2023-03-26T14:54:32;94653.09;;;25.85;15.88
64668;BME280;51077;42.716;23.344;2023-03-26T15:12:03;94654.03;;;25.05;16.22
64668;BME280;51077;42.716;23.344;2023-03-26T15:15:11;94658.81;;;24.89;16.42
64668;BME280;51077;42.716;23.344;2023-03-26T15:29:00;94655.59;;;24.27;16.93
64668;BME280;51077;42.716;23.344;2023-03-26T15:37:29;94656.53;;;23.93;17.35
64668;BME280;51077;42.716;23.344;2023-03-26T15:48:33;94656.31;;;23.51;17.56
64668;BME280;51077;42.716;23.344;2023-03-26T15:59:29;94658.84;;;23.10;18.08
64668;BME280;51077;42.716;23.344;2023-03-26T16:04:37;94661.41;;;22.94;18.35
64668;BME280;51077;42.716;23.344;2023-03-26T16:10:27;94653.97;;;22.75;18.58
64668;BME280;51077;42.716;23.344;2023-03-26T16:13:23;94654.22;;;22.68;19.06
64668;BME280;51077;42.716;23.344;2023-03-26T16:22:05;94657.41;;;22.39;19.12
64668;BME280;51077;42.716;23.344;2023-03-26T16:24:38;94656.28;;;22.32;19.46
64668;BME280;51077;42.716;23.344;2023-03-26T16:32:26;94660.81;;;22.04;19.45
64668;BME280;51077;42.716;23.344;2023-03-26T16:48:28;94673.38;;;21.48;20.01
64668;BME280;51077;42.716;23.344;2023-03-26T16:53:59;94674.09;;;21.27;20.71
64668;BME280;51077;42.716;23.344;2023-03-26T16:56:42;94680.47;;;21.18;20.79
64668;BME280;51077;42.716;23.344;2023-03-26T16:59:37;94679.81;;;21.08;20.72
64668;BME280;51077;42.716;23.344;2023-03-26T17:02:22;94680.00;;;21.00;20.97
64668;BME280;51077;42.716;23.344;2023-03-26T17:04:56;94679.44;;;20.92;20.79
64668;BME280;51077;42.716;23.344;2023-03-26T17:07:34;94680.84;;;20.81;21.21
64668;BME280;51077;42.716;23.344;2023-03-26T17:10:22;94686.88;;;20.78;21.01
64668;BME280;51077;42.716;23.344;2023-03-26T17:13:05;94685.72;;;20.71;21.23
64668;BME280;51077;42.716;23.344;2023-03-26T17:15:41;94684.69;;;20.67;21.18
64668;BME280;51077;42.716;23.344;2023-03-26T17:21:01;94690.03;;;20.53;21.42
64668;BME280;51077;42.716;23.344;2023-03-26T17:24:06;94693.88;;;20.48;21.59
64668;BME280;51077;42.716;23.344;2023-03-26T17:26:42;94690.63;;;20.42;21.75
64668;BME280;51077;42.716;23.344;2023-03-26T17:32:02;94699.03;;;20.32;21.90
64668;BME280;51077;42.716;23.344;2023-03-26T17:36:59;94703.31;;;20.23;21.86
64668;BME280;51077;42.716;23.344;2023-03-26T17:47:12;94690.28;;;20.06;22.03
64668;BME280;51077;42.716;23.344;2023-03-26T17:49:42;94686.50;;;20.02;22.15
64668;BME280;51077;42.716;23.344;2023-03-26T17:52:19;94689.00;;;19.98;22.21
64668;BME280;51077;42.716;23.344;2023-03-26T17:54:51;94692.09;;;19.92;22.25
64668;BME280;51077;42.716;23.344;2023-03-26T17:59:49;94686.66;;;19.84;22.19
64668;BME280;51077;42.716;23.344;2023-03-26T18:02:30;94687.84;;;19.81;22.28
64668;BME280;51077;42.716;23.344;2023-03-26T18:04:57;94676.28;;;19.75;22.49
64668;BME280;51077;42.716;23.344;2023-03-26T18:10:19;94679.97;;;19.68;22.54
64668;BME280;51077;42.716;23.344;2023-03-26T18:12:52;94687.84;;;19.62;22.60
64668;BME280;51077;42.716;23.344;2023-03-26T18:20:34;94682.69;;;19.49;22.83
64668;BME280;51077;42.716;23.344;2023-03-26T18:23:09;94683.31;;;19.47;22.84
64668;BME280;51077;42.716;23.344;2023-03-26T18:25:35;94677.44;;;19.43;23.01
64668;BME280;51077;42.716;23.344;2023-03-26T18:28:00;94677.16;;;19.39;23.08
64668;BME280;51077;42.716;23.344;2023-03-26T18:30:27;94674.19;;;19.37;23.25
64668;BME280;51077;42.716;23.344;2023-03-26T18:33:12;94671.16;;;19.33;23.24
64668;BME280;51077;42.716;23.344;2023-03-26T18:35:49;94676.41;;;19.29;23.26
64668;BME280;51077;42.716;23.344;2023-03-26T18:38:19;94667.78;;;19.25;23.42
64668;BME280;51077;42.716;23.344;2023-03-26T18:40:47;94660.41;;;19.20;23.44
64668;BME280;51077;42.716;23.344;2023-03-26T18:43:17;94660.00;;;19.14;23.58